Lebanon, Kansas
Current Conditions -  °F | °C
As of 2:36 AM on Thursday 18 Dec 2014 (Local Time) from KCNK Reporting Station
Moderate Snow Moderate Snow  
Wind Chill: 19°   Ceiling: 500
Heat Index: 25°   Visibility: 0.5mi
Dew Point: 24°   Wind: 5mph
Humidity: 96%   Direction: 80°E
Pressure: 30.18"   Gusts: NA
Location:  39.81°N, 98.56°W
Report Text: KCNK 180836Z AUTO 08004KT 1/2SM SN FZFG VV005 M04/M04 A3018 RMK AO2 P0013 T10391044
Loading
Personal Weather Stations






























Interactive Weather Map New forecast layout! Learn more

10-Day Weather Forecast

Advertisements
Track Severe Weather on mobile